Time;durP1;ratioP1;P1;durP2;ratioP2;P2;SDS_P1;SDS_P2;PMS_P1;PMS_P2;Temp;Humidity;BMP_temperature;BMP_pressure;BME280_temperature;BME280_humidity;BME280_pressure;Samples;Min_cycle;Max_cycle;Signal;HPM_P1;HPM_P2
2023/12/28 00:02:04;;;;;;;8.40;3.60;;;9.00;99.90;;;;;;4956384;28;20073;-77
2023/12/28 00:04:30;;;;;;;6.95;3.72;;;9.00;99.90;;;;;;4953680;28;20490;-79
2023/12/28 00:06:56;;;;;;;6.55;3.60;;;9.10;99.90;;;;;;4957400;28;20125;-75
2023/12/28 00:09:21;;;;;;;8.13;3.70;;;9.10;99.90;;;;;;4959466;28;20043;-75
2023/12/28 00:11:47;;;;;;;10.10;4.20;;;9.10;99.90;;;;;;4966392;28;20043;-75
2023/12/28 00:14:13;;;;;;;7.45;3.58;;;9.20;99.90;;;;;;4962142;28;20049;-78
2023/12/28 00:16:38;;;;;;;5.32;3.60;;;9.20;99.90;;;;;;4960414;28;20046;-77
2023/12/28 00:19:04;;;;;;;7.70;3.78;;;9.20;99.90;;;;;;4960406;28;20644;-78
2023/12/28 00:21:32;;;;;;;7.05;3.53;;;9.30;99.90;;;;;;4959468;28;20061;-74
2023/12/28 00:23:58;;;;;;;7.72;3.63;;;9.30;99.90;;;;;;4975474;28;20050;-74
2023/12/28 00:26:24;;;;;;;8.23;3.72;;;9.30;99.90;;;;;;4964802;28;20043;-75
2023/12/28 00:28:49;;;;;;;7.65;3.65;;;9.30;99.90;;;;;;4963948;28;20135;-75
2023/12/28 00:31:15;;;;;;;6.63;3.67;;;9.30;99.90;;;;;;4960096;28;20043;-75
2023/12/28 00:33:40;;;;;;;8.13;3.78;;;9.30;99.90;;;;;;4964034;28;20397;-75
2023/12/28 00:36:06;;;;;;;7.63;3.85;;;9.40;99.90;;;;;;4957472;28;20050;-75
2023/12/28 00:38:32;;;;;;;8.43;3.80;;;9.30;99.90;;;;;;4959973;28;20054;-74
2023/12/28 00:40:57;;;;;;;10.18;3.90;;;9.40;99.90;;;;;;4957611;28;20042;-76
2023/12/28 00:43:23;;;;;;;8.32;4.03;;;9.30;99.90;;;;;;4962262;28;20047;-74
2023/12/28 00:45:48;;;;;;;6.30;3.38;;;9.30;99.90;;;;;;4982337;28;20138;-76
2023/12/28 00:48:14;;;;;;;7.35;3.85;;;9.30;99.90;;;;;;4959831;28;20043;-75
2023/12/28 00:50:40;;;;;;;9.93;3.75;;;9.30;99.90;;;;;;4951977;28;20050;-75
2023/12/28 00:53:05;;;;;;;8.23;4.20;;;9.30;99.90;;;;;;4959237;28;20062;-74
2023/12/28 00:55:31;;;;;;;7.60;3.95;;;9.30;99.90;;;;;;4959520;28;20629;-75
2023/12/28 00:57:56;;;;;;;9.70;4.38;;;9.20;99.90;;;;;;4966262;28;20075;-75
2023/12/28 01:00:22;;;;;;;13.45;4.70;;;9.20;99.90;;;;;;4961368;28;20506;-75
2023/12/28 01:02:47;;;;;;;7.97;3.80;;;9.20;99.90;;;;;;4969010;28;20039;-74
2023/12/28 01:05:14;;;;;;;8.32;4.05;;;9.20;99.90;;;;;;4953317;28;20098;-77
2023/12/28 01:07:39;;;;;;;9.32;4.10;;;9.20;99.90;;;;;;4959423;28;20102;-76
2023/12/28 01:10:05;;;;;;;9.68;3.72;;;9.20;99.90;;;;;;4965669;28;20452;-76
2023/12/28 01:12:31;;;;;;;9.35;3.85;;;9.20;99.90;;;;;;4974002;28;20138;-74
2023/12/28 01:14:58;;;;;;;9.18;3.80;;;9.20;99.90;;;;;;4960333;28;20533;-74
2023/12/28 01:17:23;;;;;;;10.68;4.18;;;9.20;99.90;;;;;;4965087;28;20046;-75
2023/12/28 01:19:49;;;;;;;10.80;3.85;;;9.20;99.90;;;;;;4961261;28;20054;-75
2023/12/28 01:22:14;;;;;;;11.55;4.18;;;9.20;99.90;;;;;;4948165;28;20034;-77
2023/12/28 01:24:40;;;;;;;10.15;4.03;;;9.20;99.90;;;;;;4964620;28;20043;-74
2023/12/28 01:27:05;;;;;;;11.25;4.00;;;9.20;99.90;;;;;;4964941;28;20068;-75
2023/12/28 01:29:32;;;;;;;12.52;4.00;;;9.20;99.90;;;;;;4966901;28;20096;-74
2023/12/28 01:31:58;;;;;;;12.80;3.85;;;9.20;99.90;;;;;;4961554;28;20047;-75
2023/12/28 01:34:23;;;;;;;8.10;4.20;;;9.30;99.90;;;;;;4957388;28;20070;-74
2023/12/28 01:36:49;;;;;;;10.30;3.65;;;9.30;99.90;;;;;;4950613;28;20066;-76
2023/12/28 01:39:15;;;;;;;7.32;3.42;;;9.30;99.90;;;;;;4960074;28;20069;-74
2023/12/28 01:41:41;;;;;;;11.57;3.67;;;9.40;99.90;;;;;;4978763;28;20498;-77
2023/12/28 01:44:07;;;;;;;10.18;3.80;;;9.40;99.90;;;;;;4969933;28;20043;-74
2023/12/28 01:46:33;;;;;;;13.93;3.80;;;9.40;99.90;;;;;;4968145;28;20461;-74
2023/12/28 01:48:59;;;;;;;12.05;3.47;;;9.50;99.90;;;;;;4953186;28;20043;-74
2023/12/28 01:51:25;;;;;;;11.60;3.83;;;9.50;99.90;;;;;;4935692;28;20154;-75
2023/12/28 01:53:52;;;;;;;14.82;3.85;;;9.50;99.90;;;;;;4966056;28;20039;-74
2023/12/28 01:56:19;;;;;;;13.93;3.80;;;9.60;99.90;;;;;;4960349;28;20122;-74
2023/12/28 01:58:48;;;;;;;10.90;3.50;;;9.60;99.90;;;;;;4957550;28;20692;-74
2023/12/28 02:01:13;;;;;;;8.68;3.58;;;9.60;99.90;;;;;;4968520;28;20464;-76
2023/12/28 02:03:39;;;;;;;15.82;3.72;;;9.60;99.90;;;;;;4982014;28;20131;-74
2023/12/28 02:06:07;;;;;;;11.68;3.70;;;9.60;99.90;;;;;;4952900;28;20152;-81
2023/12/28 02:08:32;;;;;;;8.35;3.15;;;9.60;99.90;;;;;;4940988;28;20046;-76
2023/12/28 02:10:58;;;;;;;11.48;3.60;;;9.70;99.90;;;;;;4964821;28;20043;-77
2023/12/28 02:13:25;;;;;;;13.02;3.30;;;9.70;99.90;;;;;;4960400;28;20030;-74
2023/12/28 02:16:03;;;;;;;10.48;3.40;;;9.80;99.90;;;;;;4964294;28;20047;-74
2023/12/28 02:18:38;;;;;;;10.90;3.20;;;9.80;99.90;;;;;;4958854;28;20042;-75
2023/12/28 02:21:06;;;;;;;13.07;4.03;;;9.80;99.90;;;;;;4960694;28;20553;-74
2023/12/28 02:23:33;;;;;;;13.32;3.20;;;9.80;99.90;;;;;;4964297;28;20047;-74
2023/12/28 02:25:58;;;;;;;15.50;3.67;;;9.80;99.90;;;;;;4959321;28;20144;-75
2023/12/28 02:28:24;;;;;;;11.40;3.50;;;9.80;99.90;;;;;;4963669;28;20045;-75
2023/12/28 02:30:50;;;;;;;13.07;3.42;;;9.80;99.90;;;;;;4959079;28;20039;-78
2023/12/28 02:33:28;;;;;;;12.52;3.00;;;9.80;99.90;;;;;;4948746;28;20038;-76
2023/12/28 02:36:05;;;;;;;14.52;3.80;;;9.80;99.90;;;;;;4950968;28;20481;-74
2023/12/28 02:38:35;;;;;;;12.38;3.13;;;9.80;99.90;;;;;;4952155;28;20043;-77
2023/12/28 02:41:02;;;;;;;10.52;3.00;;;9.80;99.90;;;;;;4959580;28;20518;-74
2023/12/28 02:43:28;;;;;;;8.73;2.58;;;10.00;99.90;;;;;;4954210;28;20399;-74
2023/12/28 02:45:54;;;;;;;10.23;3.10;;;9.80;99.90;;;;;;4960255;28;20047;-74
2023/12/28 02:48:19;;;;;;;12.63;3.80;;;9.90;99.90;;;;;;4958861;28;20105;-75
2023/12/28 02:50:45;;;;;;;14.60;3.58;;;9.90;99.90;;;;;;4945212;28;20043;-77
2023/12/28 02:53:11;;;;;;;15.27;3.67;;;10.80;99.90;;;;;;4966203;28;20039;-74
2023/12/28 02:55:37;;;;;;;10.55;3.50;;;9.90;99.90;;;;;;4961563;28;20043;-76
2023/12/28 02:58:02;;;;;;;8.65;3.53;;;9.90;99.90;;;;;;4957131;28;20047;-74
2023/12/28 03:00:28;;;;;;;11.07;3.58;;;9.90;99.90;;;;;;4961915;28;20051;-74
2023/12/28 03:02:54;;;;;;;12.82;3.63;;;9.90;99.90;;;;;;4946550;28;20050;-74
2023/12/28 03:05:19;;;;;;;10.43;4.03;;;9.90;99.90;;;;;;4958129;28;20093;-75
2023/12/28 03:07:45;;;;;;;12.48;3.83;;;9.90;99.90;;;;;;4962059;28;20035;-77
2023/12/28 03:10:12;;;;;;;16.15;3.30;;;9.90;99.90;;;;;;4953168;28;20058;-75
2023/12/28 03:12:37;;;;;;;9.60;3.30;;;9.90;99.90;;;;;;4968369;28;20047;-77
2023/12/28 03:15:04;;;;;;;10.68;3.20;;;9.90;99.90;;;;;;4957332;28;20118;-75
2023/12/28 03:17:30;;;;;;;9.57;3.20;;;9.90;99.90;;;;;;4968021;28;20129;-75
2023/12/28 03:19:56;;;;;;;11.07;3.15;;;9.80;99.90;;;;;;4967213;28;20055;-75
2023/12/28 03:22:22;;;;;;;8.07;3.22;;;9.90;99.90;;;;;;4955551;28;20054;-75
2023/12/28 03:24:48;;;;;;;11.90;3.17;;;9.90;99.90;;;;;;4956600;28;20051;-76
2023/12/28 03:27:14;;;;;;;11.70;3.33;;;9.90;99.90;;;;;;4956938;28;20070;-79
2023/12/28 03:29:42;;;;;;;10.65;3.15;;;9.90;99.90;;;;;;4956584;28;20035;-75
2023/12/28 03:32:08;;;;;;;9.63;2.70;;;9.90;99.90;;;;;;4953527;28;20054;-74
2023/12/28 03:34:34;;;;;;;9.48;3.00;;;9.90;99.90;;;;;;4957383;28;20047;-74
2023/12/28 03:36:59;;;;;;;9.88;3.63;;;9.90;99.90;;;;;;4977843;28;20046;-74
2023/12/28 03:39:25;;;;;;;9.32;3.03;;;10.00;99.90;;;;;;4981583;28;20054;-74
2023/12/28 03:41:52;;;;;;;10.55;2.88;;;10.00;99.90;;;;;;4954828;28;20447;-74
2023/12/28 03:44:21;;;;;;;7.57;2.92;;;10.00;99.90;;;;;;4956226;28;20074;-77
2023/12/28 03:46:51;;;;;;;9.60;2.72;;;10.00;99.90;;;;;;4952592;28;20387;-74
2023/12/28 03:49:20;;;;;;;10.98;3.13;;;10.00;99.90;;;;;;4954639;28;20094;-74
2023/12/28 03:51:49;;;;;;;8.43;3.28;;;10.00;99.90;;;;;;4957528;28;20105;-74
2023/12/28 03:54:18;;;;;;;9.13;2.90;;;10.10;99.90;;;;;;4950770;28;20089;-77
2023/12/28 03:56:45;;;;;;;11.02;3.13;;;10.10;99.90;;;;;;4953491;28;20379;-74
2023/12/28 03:59:10;;;;;;;11.25;2.72;;;10.10;99.90;;;;;;4979327;28;20102;-77
2023/12/28 04:01:36;;;;;;;8.55;2.80;;;10.10;99.90;;;;;;4936514;28;20035;-74
2023/12/28 04:04:02;;;;;;;9.85;3.03;;;10.10;99.90;;;;;;4954814;28;20082;-74
2023/12/28 04:06:28;;;;;;;12.48;2.95;;;10.10;99.90;;;;;;4951198;28;20071;-74
2023/12/28 04:08:53;;;;;;;11.35;2.55;;;10.10;99.90;;;;;;4955592;28;20046;-74
2023/12/28 04:11:19;;;;;;;15.30;3.45;;;10.10;99.90;;;;;;4957922;28;20048;-78
2023/12/28 04:13:44;;;;;;;10.10;2.60;;;10.10;99.90;;;;;;4956923;28;20031;-76
2023/12/28 04:16:14;;;;;;;13.68;2.88;;;10.10;99.90;;;;;;4955185;28;20039;-74
2023/12/28 04:18:43;;;;;;;10.98;2.53;;;10.20;99.90;;;;;;4964065;28;20497;-75
2023/12/28 04:21:10;;;;;;;11.43;2.67;;;10.20;99.90;;;;;;4961853;28;20047;-74
2023/12/28 04:23:40;;;;;;;17.73;4.05;;;10.30;99.90;;;;;;4963370;28;20030;-76
2023/12/28 04:26:06;;;;;;;12.85;3.33;;;10.30;99.90;;;;;;4943816;28;20047;-74
2023/12/28 04:28:34;;;;;;;16.45;2.95;;;10.30;99.90;;;;;;4955636;28;20091;-74
2023/12/28 04:31:05;;;;;;;13.18;2.85;;;10.40;99.90;;;;;;4952986;28;20114;-77
2023/12/28 04:33:31;;;;;;;7.82;2.42;;;10.40;99.90;;;;;;4955050;28;20117;-74
2023/12/28 04:35:57;;;;;;;9.85;2.50;;;10.40;99.90;;;;;;4964428;28;20174;-74
2023/12/28 04:38:22;;;;;;;15.75;3.20;;;10.40;99.90;;;;;;4953315;28;20039;-74
2023/12/28 04:40:48;;;;;;;15.10;3.13;;;10.40;99.90;;;;;;4969293;28;20086;-75
2023/12/28 04:43:13;;;;;;;12.80;3.05;;;10.40;99.90;;;;;;4963766;28;20043;-75
2023/12/28 04:45:39;;;;;;;12.40;2.85;;;10.50;99.90;;;;;;4958019;28;20055;-75
2023/12/28 04:48:05;;;;;;;16.52;2.83;;;10.40;99.90;;;;;;4962976;28;20498;-75
2023/12/28 04:50:30;;;;;;;11.63;2.92;;;10.40;99.90;;;;;;4962814;28;20539;-75
2023/12/28 04:52:56;;;;;;;14.10;2.97;;;10.40;99.90;;;;;;4971902;28;20089;-74
2023/12/28 04:55:21;;;;;;;13.02;2.67;;;10.50;99.90;;;;;;4952535;28;20043;-74
2023/12/28 04:57:47;;;;;;;13.13;2.80;;;10.50;99.90;;;;;;4959437;28;20042;-75
2023/12/28 05:00:12;;;;;;;12.98;2.90;;;10.50;99.90;;;;;;4956883;28;20442;-77
2023/12/28 05:02:38;;;;;;;18.17;3.42;;;10.50;99.90;;;;;;4986769;28;20508;-74
2023/12/28 05:05:04;;;;;;;15.80;2.85;;;10.50;99.90;;;;;;4971293;28;20050;-74
2023/12/28 05:07:29;;;;;;;14.55;3.08;;;10.50;99.90;;;;;;4953958;28;20478;-74
2023/12/28 05:09:55;;;;;;;8.60;2.83;;;10.50;99.90;;;;;;4960465;28;21892;-74
2023/12/28 05:12:20;;;;;;;17.40;3.28;;;10.50;99.90;;;;;;4977055;28;20038;-75
2023/12/28 05:14:46;;;;;;;14.75;2.70;;;10.60;99.90;;;;;;4973484;28;20050;-76
2023/12/28 05:17:12;;;;;;;20.45;3.38;;;10.60;99.90;;;;;;4953579;28;20095;-74
2023/12/28 05:19:37;;;;;;;12.57;3.00;;;10.60;99.90;;;;;;4965307;28;20034;-74
2023/12/28 05:22:06;;;;;;;11.90;3.35;;;10.60;99.90;;;;;;4959332;28;20045;-79
2023/12/28 05:24:32;;;;;;;12.52;2.83;;;10.70;99.90;;;;;;4966572;28;20050;-75
2023/12/28 05:26:57;;;;;;;16.92;3.08;;;10.60;99.90;;;;;;4955314;28;20047;-74
2023/12/28 05:29:23;;;;;;;16.67;3.55;;;10.60;99.90;;;;;;4957922;28;20490;-79
2023/12/28 05:31:48;;;;;;;15.07;3.15;;;10.60;99.90;;;;;;4952810;28;20569;-76
2023/12/28 05:34:14;;;;;;;12.13;2.75;;;10.60;99.90;;;;;;4969075;28;20502;-74
2023/12/28 05:36:41;;;;;;;13.25;2.80;;;10.70;99.90;;;;;;4958817;28;20039;-74
2023/12/28 05:39:09;;;;;;;12.90;2.65;;;10.70;99.90;;;;;;4958783;28;20616;-75
2023/12/28 05:41:35;;;;;;;15.25;3.20;;;10.70;99.90;;;;;;4958549;28;20047;-74
2023/12/28 05:44:00;;;;;;;11.25;2.90;;;10.70;99.90;;;;;;4954999;28;20045;-74
2023/12/28 05:46:26;;;;;;;12.60;3.08;;;10.70;99.90;;;;;;4957583;28;20074;-77
2023/12/28 05:48:51;;;;;;;15.75;3.60;;;10.70;99.90;;;;;;4953494;28;20043;-74
2023/12/28 05:51:18;;;;;;;17.10;3.30;;;10.70;99.90;;;;;;4936517;28;20035;-74
2023/12/28 05:53:44;;;;;;;13.75;3.55;;;10.70;99.90;;;;;;4960218;28;20138;-74
2023/12/28 05:56:09;;;;;;;15.93;3.42;;;10.70;99.90;;;;;;4952824;28;20126;-74
2023/12/28 05:58:36;;;;;;;12.98;2.95;;;10.70;99.90;;;;;;4958151;28;20071;-74
2023/12/28 06:01:04;;;;;;;11.20;2.85;;;10.70;99.90;;;;;;4965676;28;20046;-75
2023/12/28 06:03:30;;;;;;;14.63;3.00;;;10.70;99.90;;;;;;4962966;28;20046;-77
2023/12/28 06:05:56;;;;;;;14.35;3.08;;;10.70;99.90;;;;;;4956523;28;20050;-73
2023/12/28 06:08:22;;;;;;;12.90;2.72;;;10.80;99.90;;;;;;4953679;28;20043;-74
2023/12/28 06:10:47;;;;;;;12.10;3.03;;;10.80;99.90;;;;;;4952952;28;20401;-73
2023/12/28 06:13:13;;;;;;;12.25;2.53;;;10.70;99.90;;;;;;4954563;28;20398;-74
2023/12/28 06:15:38;;;;;;;22.67;2.78;;;10.70;99.90;;;;;;4950122;28;20585;-77
2023/12/28 06:18:04;;;;;;;19.20;4.07;;;11.10;99.90;;;;;;4965188;28;20046;-75
2023/12/28 06:20:30;;;;;;;16.02;2.83;;;10.70;99.90;;;;;;4960685;28;20050;-74
2023/12/28 06:22:55;;;;;;;17.75;3.58;;;10.70;99.90;;;;;;4938988;28;20122;-76
2023/12/28 06:25:21;;;;;;;17.73;3.20;;;10.70;99.90;;;;;;4957725;28;20074;-74
2023/12/28 06:27:47;;;;;;;17.40;3.95;;;10.70;99.90;;;;;;4953977;28;20434;-75
2023/12/28 06:30:13;;;;;;;15.95;4.72;;;10.80;99.90;;;;;;4956124;28;20043;-74
2023/12/28 06:32:39;;;;;;;12.20;2.75;;;10.80;99.90;;;;;;4952973;28;20043;-74
2023/12/28 06:35:05;;;;;;;13.88;3.13;;;10.80;99.90;;;;;;4960448;28;20081;-74
2023/12/28 06:37:31;;;;;;;12.55;3.03;;;10.70;99.90;;;;;;4965279;28;20051;-74
2023/12/28 06:39:56;;;;;;;15.18;2.80;;;10.80;99.90;;;;;;4953910;28;20050;-74
2023/12/28 06:42:22;;;;;;;12.98;2.67;;;10.80;99.90;;;;;;4956486;28;20561;-74
2023/12/28 06:44:47;;;;;;;15.63;2.95;;;10.80;99.90;;;;;;4952849;28;20050;-76
2023/12/28 06:47:13;;;;;;;19.42;3.15;;;10.80;99.90;;;;;;4964577;28;20042;-74
2023/12/28 06:49:38;;;;;;;18.88;3.55;;;10.80;99.90;;;;;;4959087;28;20078;-74
2023/12/28 06:52:04;;;;;;;17.20;3.83;;;10.90;99.90;;;;;;4954777;28;20043;-74
2023/12/28 06:54:30;;;;;;;17.05;3.97;;;10.90;99.90;;;;;;4967364;28;20051;-78
2023/12/28 06:56:55;;;;;;;18.63;3.42;;;10.90;99.90;;;;;;4954031;28;20039;-74
2023/12/28 06:59:21;;;;;;;17.75;3.25;;;10.90;99.90;;;;;;4958790;28;20074;-74
2023/12/28 07:01:48;;;;;;;16.58;3.08;;;10.90;99.90;;;;;;4979451;28;20379;-74
2023/12/28 07:04:13;;;;;;;18.73;3.47;;;11.00;99.90;;;;;;4962795;28;20047;-74
2023/12/28 07:06:39;;;;;;;16.80;3.78;;;11.00;99.90;;;;;;4952034;28;20042;-74
2023/12/28 07:09:05;;;;;;;18.52;3.20;;;10.90;99.90;;;;;;4955881;28;20168;-78
2023/12/28 07:11:31;;;;;;;14.65;2.80;;;11.00;99.90;;;;;;4959897;28;20054;-74
2023/12/28 07:13:56;;;;;;;21.05;3.95;;;11.00;99.90;;;;;;4956742;28;20036;-75
2023/12/28 07:16:22;;;;;;;17.20;3.25;;;11.00;99.90;;;;;;4960193;28;20189;-74
2023/12/28 07:18:48;;;;;;;16.67;3.20;;;11.00;99.90;;;;;;4964044;28;20047;-74
2023/12/28 07:21:13;;;;;;;15.88;3.20;;;11.00;99.90;;;;;;4954725;28;20384;-78
2023/12/28 07:23:39;;;;;;;21.00;3.72;;;11.00;99.90;;;;;;4958469;28;20059;-75
2023/12/28 07:26:05;;;;;;;19.10;3.72;;;11.00;99.90;;;;;;4955434;28;20140;-78
2023/12/28 07:28:31;;;;;;;17.35;3.47;;;11.00;99.90;;;;;;4964366;28;20103;-74
2023/12/28 07:30:56;;;;;;;16.20;3.50;;;11.10;99.90;;;;;;4953784;28;20635;-75
2023/12/28 07:33:22;;;;;;;16.65;3.88;;;11.00;99.90;;;;;;4937166;28;20062;-74
2023/12/28 07:35:48;;;;;;;17.08;3.63;;;11.10;99.90;;;;;;4959207;28;20593;-74
2023/12/28 07:38:13;;;;;;;28.15;4.07;;;11.10;99.90;;;;;;4950132;28;20073;-77
2023/12/28 07:40:39;;;;;;;19.98;3.90;;;11.10;99.90;;;;;;4959746;28;20043;-75
2023/12/28 07:43:05;;;;;;;17.40;3.92;;;11.10;99.90;;;;;;4955614;28;20040;-81
2023/12/28 07:45:31;;;;;;;15.02;3.50;;;11.10;99.90;;;;;;4958922;28;20505;-74
2023/12/28 07:47:58;;;;;;;17.10;4.63;;;11.10;99.90;;;;;;4954578;28;20443;-77
2023/12/28 07:50:24;;;;;;;20.23;3.75;;;11.10;99.90;;;;;;4963047;28;20047;-74
2023/12/28 07:52:49;;;;;;;15.55;3.33;;;11.10;99.90;;;;;;4973174;28;20049;-77
2023/12/28 07:55:15;;;;;;;21.88;4.30;;;11.10;99.90;;;;;;4961892;28;20074;-76
2023/12/28 07:57:41;;;;;;;20.17;3.78;;;11.10;99.90;;;;;;4967334;28;20139;-74
2023/12/28 08:00:07;;;;;;;24.33;4.00;;;11.00;99.90;;;;;;4960875;28;20043;-74
2023/12/28 08:02:33;;;;;;;18.60;4.93;;;11.10;99.90;;;;;;4966499;28;20804;-77
2023/12/28 08:04:59;;;;;;;19.25;4.03;;;11.10;99.90;;;;;;4960852;28;20510;-74
2023/12/28 08:07:24;;;;;;;16.05;3.00;;;11.10;99.90;;;;;;4961148;28;20047;-74
2023/12/28 08:09:50;;;;;;;22.10;3.95;;;11.10;99.90;;;;;;4955630;28;20031;-75
2023/12/28 08:12:16;;;;;;;24.77;4.28;;;11.10;99.90;;;;;;4960191;28;20085;-74
2023/12/28 08:14:42;;;;;;;16.58;3.88;;;11.10;99.90;;;;;;4957035;28;20043;-74
2023/12/28 08:17:08;;;;;;;19.08;3.53;;;11.10;99.90;;;;;;4979429;28;20049;-77
2023/12/28 08:19:33;;;;;;;24.83;4.50;;;11.10;99.90;;;;;;4955200;28;20078;-74
2023/12/28 08:21:59;;;;;;;21.67;3.55;;;11.10;99.90;;;;;;4950915;28;20413;-74
2023/12/28 08:24:24;;;;;;;27.42;4.28;;;11.10;99.90;;;;;;4956164;28;20406;-74
2023/12/28 08:26:50;;;;;;;20.42;3.42;;;11.10;99.90;;;;;;4985576;28;20409;-75
2023/12/28 08:29:16;;;;;;;17.55;3.97;;;11.10;99.90;;;;;;4938626;28;20402;-74
2023/12/28 08:31:41;;;;;;;18.45;3.70;;;11.10;99.90;;;;;;4964981;28;20834;-74
2023/12/28 08:34:07;;;;;;;23.77;4.28;;;11.00;99.90;;;;;;4971472;28;20570;-76
2023/12/28 08:36:32;;;;;;;22.27;4.38;;;11.10;99.90;;;;;;4969630;28;20086;-79
2023/12/28 08:38:58;;;;;;;19.15;3.75;;;11.00;99.90;;;;;;4976772;28;20081;-75
2023/12/28 08:41:24;;;;;;;24.10;4.50;;;11.10;99.90;;;;;;4955180;28;20047;-75
2023/12/28 08:43:50;;;;;;;16.05;3.90;;;11.10;99.90;;;;;;4963352;28;20528;-74
2023/12/28 08:46:16;;;;;;;20.08;3.85;;;11.20;99.90;;;;;;4946844;28;20046;-74
2023/12/28 08:48:42;;;;;;;22.83;4.25;;;11.10;99.90;;;;;;4958026;28;20055;-76
2023/12/28 08:51:09;;;;;;;22.25;4.78;;;11.10;99.90;;;;;;4960907;28;20406;-74
2023/12/28 08:53:35;;;;;;;17.70;3.70;;;11.00;99.90;;;;;;4954189;28;20106;-77
2023/12/28 08:56:00;;;;;;;22.63;4.40;;;11.10;99.90;;;;;;4951092;28;20043;-74
2023/12/28 08:58:26;;;;;;;19.63;3.80;;;11.10;99.90;;;;;;4960111;28;20074;-74
2023/12/28 09:00:51;;;;;;;26.20;3.85;;;11.10;99.90;;;;;;4955098;28;20051;-77
2023/12/28 09:03:17;;;;;;;22.02;3.83;;;11.10;99.90;;;;;;4965486;28;20046;-75
2023/12/28 09:05:43;;;;;;;21.45;3.83;;;11.10;99.90;;;;;;4952692;28;20033;-74
2023/12/28 09:08:08;;;;;;;19.15;3.83;;;11.20;99.90;;;;;;4965982;28;20030;-74
2023/12/28 09:10:34;;;;;;;22.63;4.03;;;11.20;99.90;;;;;;4967070;28;20043;-74
2023/12/28 09:13:00;;;;;;;21.92;4.07;;;11.10;99.90;;;;;;4956438;28;20086;-74
2023/12/28 09:15:25;;;;;;;24.35;3.90;;;11.10;99.90;;;;;;4958729;28;20501;-74
2023/12/28 09:17:51;;;;;;;18.40;3.45;;;11.20;99.90;;;;;;4959744;28;20054;-74
2023/12/28 09:20:18;;;;;;;16.85;3.65;;;11.20;99.90;;;;;;4957854;28;20150;-74
2023/12/28 09:22:43;;;;;;;22.33;3.78;;;11.20;99.90;;;;;;4959581;28;20047;-74
2023/12/28 09:25:09;;;;;;;18.77;3.53;;;11.20;99.90;;;;;;4951948;28;20039;-74
2023/12/28 09:27:34;;;;;;;18.30;3.50;;;11.20;99.90;;;;;;4951064;28;20046;-74
2023/12/28 09:30:00;;;;;;;18.48;3.70;;;11.20;99.90;;;;;;4954125;28;20146;-77
2023/12/28 09:32:25;;;;;;;17.73;4.07;;;11.20;99.90;;;;;;4957305;28;20043;-74
2023/12/28 09:34:51;;;;;;;17.13;3.45;;;11.20;99.90;;;;;;4966846;28;20043;-74
2023/12/28 09:37:17;;;;;;;18.73;4.32;;;11.20;99.90;;;;;;4960765;28;20089;-74
2023/12/28 09:39:42;;;;;;;21.63;4.25;;;11.20;99.90;;;;;;4958046;28;20475;-79
2023/12/28 09:42:20;;;;;;;24.00;3.42;;;11.30;99.90;;;;;;4959989;28;20053;-74
2023/12/28 09:44:47;;;;;;;19.00;4.20;;;11.30;99.90;;;;;;4964847;28;20061;-74
2023/12/28 09:47:14;;;;;;;25.10;4.82;;;11.30;99.90;;;;;;4955848;28;20118;-77
2023/12/28 09:49:41;;;;;;;19.88;4.00;;;11.40;99.90;;;;;;4975529;28;20442;-74
2023/12/28 09:52:07;;;;;;;20.23;4.15;;;11.20;99.90;;;;;;4960513;28;20043;-75
2023/12/28 09:54:34;;;;;;;22.67;3.45;;;11.20;99.90;;;;;;4959853;28;20513;-77
2023/12/28 09:56:59;;;;;;;25.80;4.43;;;11.20;99.90;;;;;;4955214;28;20812;-74
2023/12/28 09:59:26;;;;;;;19.08;3.92;;;11.20;99.90;;;;;;4952762;28;20047;-76
2023/12/28 10:01:55;;;;;;;24.08;3.58;;;11.20;99.90;;;;;;4954009;28;20050;-75
2023/12/28 10:04:21;;;;;;;21.73;4.53;;;11.30;99.90;;;;;;4958285;28;20047;-74
2023/12/28 10:06:47;;;;;;;21.17;3.80;;;11.50;99.90;;;;;;4964392;28;20566;-74
2023/12/28 10:09:12;;;;;;;20.88;4.00;;;11.30;99.90;;;;;;4955791;28;20039;-73
2023/12/28 10:11:38;;;;;;;20.05;3.80;;;11.30;99.90;;;;;;4953580;28;20043;-74
2023/12/28 10:14:04;;;;;;;22.92;4.15;;;11.30;99.90;;;;;;4970124;28;20043;-75
2023/12/28 10:16:30;;;;;;;21.63;3.90;;;11.30;99.90;;;;;;4968501;28;20129;-74
2023/12/28 10:18:59;;;;;;;21.50;4.30;;;11.30;99.90;;;;;;4965402;28;20038;-74
2023/12/28 10:21:24;;;;;;;22.88;4.90;;;11.30;99.90;;;;;;4962916;28;20035;-74
2023/12/28 10:23:50;;;;;;;20.25;3.97;;;11.80;99.90;;;;;;4962674;28;20039;-74
2023/12/28 10:26:18;;;;;;;17.98;3.10;;;11.30;99.90;;;;;;4950876;28;20083;-75
2023/12/28 10:28:44;;;;;;;22.50;3.70;;;11.30;99.90;;;;;;4951048;28;20054;-74
2023/12/28 10:31:10;;;;;;;21.20;4.15;;;11.30;99.90;;;;;;4956306;28;20482;-77
2023/12/28 10:33:36;;;;;;;17.88;3.75;;;11.30;99.90;;;;;;4963024;28;20038;-75
2023/12/28 10:36:07;;;;;;;19.42;3.95;;;11.30;99.90;;;;;;4959813;28;20043;-75
2023/12/28 10:38:36;;;;;;;16.65;3.70;;;11.30;99.90;;;;;;4940703;28;20050;-77
2023/12/28 10:41:06;;;;;;;17.00;3.20;;;11.30;99.90;;;;;;4954995;28;20670;-74
2023/12/28 10:43:46;;;;;;;20.25;3.60;;;11.30;99.90;;;;;;4955086;28;20047;-77
2023/12/28 10:46:27;;;;;;;21.67;4.07;;;11.30;99.90;;;;;;4953767;28;20054;-76
2023/12/28 10:48:57;;;;;;;19.88;3.83;;;11.30;99.90;;;;;;4961593;28;20082;-76
2023/12/28 10:51:27;;;;;;;15.80;3.50;;;11.30;99.90;;;;;;4967226;28;20089;-74
2023/12/28 10:54:13;;;;;;;22.50;3.60;;;11.30;99.90;;;;;;4958903;28;20077;-75
2023/12/28 10:56:46;;;;;;;22.27;3.85;;;11.30;99.90;;;;;;4960106;28;20280;-74
2023/12/28 10:59:44;;;;;;;18.02;3.70;;;11.30;99.90;;;;;;4957456;28;20043;-74
2023/12/28 11:02:14;;;;;;;20.02;3.67;;;11.30;99.90;;;;;;4949234;28;20054;-74
2023/12/28 11:04:50;;;;;;;21.17;3.88;;;11.30;99.90;;;;;;4955785;28;20490;-74
2023/12/28 11:07:18;;;;;;;18.50;3.63;;;11.40;99.90;;;;;;4952393;28;20047;-74
2023/12/28 11:09:44;;;;;;;17.70;3.60;;;11.40;99.90;;;;;;4960337;28;20054;-76
2023/12/28 11:12:10;;;;;;;17.23;3.75;;;11.40;99.90;;;;;;4964014;28;20130;-74
2023/12/28 11:14:42;;;;;;;19.40;3.50;;;11.40;99.90;;;;;;4956513;28;20102;-74
2023/12/28 11:17:09;;;;;;;18.20;3.80;;;11.40;99.90;;;;;;4950729;28;20368;-75
2023/12/28 11:19:35;;;;;;;19.25;3.47;;;11.40;99.90;;;;;;4953409;28;21060;-74
2023/12/28 11:22:05;;;;;;;18.55;3.60;;;11.40;99.90;;;;;;4959865;28;20035;-77
2023/12/28 11:24:31;;;;;;;18.27;3.33;;;11.50;99.90;;;;;;4953853;28;20049;-76
2023/12/28 11:26:57;;;;;;;20.63;3.85;;;11.50;99.90;;;;;;4968656;28;20038;-77
2023/12/28 11:29:24;;;;;;;17.20;4.10;;;11.50;99.90;;;;;;4953676;28;20054;-74
2023/12/28 11:31:54;;;;;;;19.70;3.05;;;11.50;99.90;;;;;;4959404;28;20122;-75
2023/12/28 11:34:25;;;;;;;21.27;3.80;;;11.50;99.90;;;;;;4962887;28;20162;-75
2023/12/28 11:36:54;;;;;;;12.85;3.03;;;11.40;99.90;;;;;;4959393;28;20046;-74
2023/12/28 11:39:39;;;;;;;18.17;3.42;;;12.00;99.90;;;;;;4961659;28;20153;-76
2023/12/28 11:42:09;;;;;;;14.95;3.80;;;11.50;99.90;;;;;;4955710;28;20441;-74
2023/12/28 11:44:44;;;;;;;21.30;4.07;;;11.50;99.90;;;;;;4959446;28;20047;-74
2023/12/28 11:47:20;;;;;;;18.77;3.30;;;11.50;99.90;;;;;;4957056;28;20053;-74
2023/12/28 11:49:47;;;;;;;23.15;3.80;;;11.40;99.90;;;;;;4953185;28;20784;-77
2023/12/28 11:52:24;;;;;;;20.42;3.95;;;11.40;99.90;;;;;;4965121;28;20038;-74
2023/12/28 11:54:49;;;;;;;24.23;3.97;;;11.70;99.90;;;;;;4960602;28;20090;-74
2023/12/28 11:57:16;;;;;;;25.60;4.25;;;11.40;99.90;;;;;;4958687;28;20035;-75
2023/12/28 11:59:41;;;;;;;19.55;3.80;;;11.30;99.90;;;;;;4955498;28;20050;-77
2023/12/28 12:02:08;;;;;;;16.27;4.65;;;11.30;99.90;;;;;;4967045;28;20043;-77
2023/12/28 12:04:34;;;;;;;21.33;4.18;;;11.30;99.90;;;;;;4957511;28;20039;-76
2023/12/28 12:07:03;;;;;;;22.23;4.22;;;11.30;99.90;;;;;;4956927;28;20130;-74
2023/12/28 12:09:32;;;;;;;16.90;3.28;;;11.40;99.90;;;;;;4967773;28;20039;-74
2023/12/28 12:11:57;;;;;;;22.88;4.15;;;11.30;99.90;;;;;;4961967;28;20529;-75
2023/12/28 12:14:23;;;;;;;26.80;3.88;;;11.30;99.90;;;;;;4969506;28;20047;-74
2023/12/28 12:16:49;;;;;;;21.95;4.28;;;11.30;99.90;;;;;;4961164;28;20053;-74
2023/12/28 12:19:15;;;;;;;22.65;4.03;;;11.40;99.90;;;;;;4956761;28;20047;-78
2023/12/28 12:21:41;;;;;;;30.83;4.57;;;11.40;99.90;;;;;;4956931;28;20049;-77
2023/12/28 12:24:07;;;;;;;27.38;4.10;;;11.40;99.90;;;;;;4979134;28;20042;-74
2023/12/28 12:26:33;;;;;;;25.98;4.95;;;11.40;99.90;;;;;;4953248;28;20039;-74
2023/12/28 12:28:58;;;;;;;23.38;4.32;;;11.40;99.90;;;;;;4960013;28;20046;-74
2023/12/28 12:31:26;;;;;;;25.10;5.00;;;11.40;99.90;;;;;;4965438;28;20421;-75
2023/12/28 12:33:52;;;;;;;25.95;3.78;;;11.40;99.90;;;;;;4954845;28;20491;-75
2023/12/28 12:36:17;;;;;;;27.52;4.45;;;11.40;99.90;;;;;;4982255;28;20039;-76
2023/12/28 12:38:43;;;;;;;16.00;3.78;;;11.40;99.90;;;;;;4960750;28;20198;-74